Time;durP1;ratioP1;P1;durP2;ratioP2;P2;SDS_P1;SDS_P2;PMS_P1;PMS_P2;Temp;Humidity;BMP_temperature;BMP_pressure;BME280_temperature;BME280_humidity;BME280_pressure;Samples;Min_cycle;Max_cycle;Signal;HPM_P1;HPM_P2
2023/03/19 00:01:57;;;;;;;;;;;;;;;22.99;16.86;98288.00;5055279;28;19921;-85
2023/03/19 00:04:24;;;;;;;;;;;;;;;22.85;17.44;98302.25;5046120;28;20031;-85
2023/03/19 00:06:50;;;;;;;;;;;;;;;22.69;16.86;98308.41;5053154;28;20317;-85
2023/03/19 00:09:17;;;;;;;;;;;;;;;22.31;16.69;98316.03;5067543;28;19928;-85
2023/03/19 00:11:43;;;;;;;;;;;;;;;22.58;16.69;98310.53;5055358;28;19921;-85
2023/03/19 00:14:10;;;;;;;;;;;;;;;23.05;16.57;98309.53;5054561;28;19925;-85
2023/03/19 00:16:36;;;;;;;;;;;;;;;23.19;15.94;98306.53;5052012;28;19928;-85
2023/03/19 00:19:02;;;;;;;;;;;;;;;23.29;15.73;98311.16;5034194;28;19925;-85
2023/03/19 00:21:29;;;;;;;;;;;;;;;23.47;15.71;98310.94;5060804;28;20058;-85
2023/03/19 00:24:01;;;;;;;;;;;;;;;23.74;15.58;98308.09;5052408;28;19921;-85
2023/03/19 00:26:27;;;;;;;;;;;;;;;23.41;15.42;98314.66;5056297;28;19928;-85
2023/03/19 00:28:54;;;;;;;;;;;;;;;22.90;16.15;98310.94;5047841;28;19928;-85
2023/03/19 00:31:20;;;;;;;;;;;;;;;23.02;16.99;98309.59;5068034;28;19936;-85
2023/03/19 00:33:46;;;;;;;;;;;;;;;22.88;15.60;98318.97;5050346;28;19927;-85
2023/03/19 00:36:13;;;;;;;;;;;;;;;22.60;15.93;98319.31;5052714;28;19921;-85
2023/03/19 00:38:39;;;;;;;;;;;;;;;22.79;15.91;98317.91;5049929;28;19967;-85
2023/03/19 00:41:06;;;;;;;;;;;;;;;23.22;16.01;98311.28;5053825;28;19928;-86
2023/03/19 00:43:32;;;;;;;;;;;;;;;23.52;16.20;98302.06;5055362;28;19982;-86
2023/03/19 00:45:58;;;;;;;;;;;;;;;23.26;15.56;98305.63;5056218;28;20376;-85
2023/03/19 00:48:24;;;;;;;;;;;;;;;23.06;16.16;98297.13;5049856;28;19947;-85
2023/03/19 00:50:50;;;;;;;;;;;;;;;22.72;15.71;98307.59;5050752;28;19927;-85
2023/03/19 00:53:16;;;;;;;;;;;;;;;22.89;15.86;98308.56;5047721;28;19928;-85
2023/03/19 00:55:43;;;;;;;;;;;;;;;23.10;15.55;98295.06;5047453;28;20015;-85
2023/03/19 00:58:09;;;;;;;;;;;;;;;23.20;15.70;98290.50;5047624;28;19920;-84
2023/03/19 01:00:36;;;;;;;;;;;;;;;23.14;15.39;98292.22;5057786;28;19920;-85
2023/03/19 01:03:02;;;;;;;;;;;;;;;23.29;16.35;98290.78;5052927;28;20020;-85
2023/03/19 01:05:28;;;;;;;;;;;;;;;23.27;15.82;98296.78;5051966;28;19952;-85
2023/03/19 01:07:55;;;;;;;;;;;;;;;23.38;15.90;98295.88;5052033;28;19932;-85
2023/03/19 01:10:22;;;;;;;;;;;;;;;23.34;16.26;98288.31;5048986;28;19924;-85
2023/03/19 01:12:48;;;;;;;;;;;;;;;23.15;16.02;98291.00;5052872;28;20008;-85
2023/03/19 01:15:14;;;;;;;;;;;;;;;22.50;16.39;98293.03;5051737;28;20015;-85
2023/03/19 01:17:41;;;;;;;;;;;;;;;22.36;16.54;98298.00;5051952;28;19921;-85
2023/03/19 01:20:11;;;;;;;;;;;;;;;22.36;16.57;98293.19;5052298;28;19928;-85
2023/03/19 01:22:40;;;;;;;;;;;;;;;22.25;16.60;98292.53;5052598;28;19921;-85
2023/03/19 01:25:06;;;;;;;;;;;;;;;22.55;16.66;98286.19;5064551;28;19929;-85
2023/03/19 01:27:32;;;;;;;;;;;;;;;22.45;15.72;98296.28;5049469;28;20511;-85
2023/03/19 01:29:59;;;;;;;;;;;;;;;22.22;16.52;98293.34;5051381;28;20410;-85
2023/03/19 01:32:25;;;;;;;;;;;;;;;22.15;16.29;98285.03;5049733;28;19935;-85
2023/03/19 01:34:52;;;;;;;;;;;;;;;21.88;17.12;98286.94;5051362;28;20337;-85
2023/03/19 01:37:19;;;;;;;;;;;;;;;22.07;16.71;98286.34;5050411;28;20158;-85
2023/03/19 01:39:45;;;;;;;;;;;;;;;22.12;16.20;98277.50;5045137;28;19925;-85
2023/03/19 01:42:11;;;;;;;;;;;;;;;22.23;16.50;98289.38;5049923;28;19921;-85
2023/03/19 01:44:38;;;;;;;;;;;;;;;22.14;16.07;98288.25;5050321;28;19999;-85
2023/03/19 01:47:06;;;;;;;;;;;;;;;21.50;16.53;98288.03;5051057;28;19921;-85
2023/03/19 01:49:33;;;;;;;;;;;;;;;21.65;16.69;98286.72;5047804;28;19920;-85
2023/03/19 01:52:01;;;;;;;;;;;;;;;21.86;16.78;98287.34;5060891;28;19925;-85
2023/03/19 01:54:29;;;;;;;;;;;;;;;21.81;16.92;98290.56;5049389;28;19927;-85
2023/03/19 01:56:59;;;;;;;;;;;;;;;21.72;16.72;98290.25;5046326;28;19943;-85
2023/03/19 01:59:30;;;;;;;;;;;;;;;21.81;17.37;98289.75;5046812;28;19967;-85
2023/03/19 02:02:09;;;;;;;;;;;;;;;22.12;17.29;98293.50;5060689;28;19921;-85
2023/03/19 02:04:36;;;;;;;;;;;;;;;22.48;16.34;98289.88;5049358;28;20388;-85
2023/03/19 02:07:03;;;;;;;;;;;;;;;22.28;15.85;98297.31;5051356;28;19970;-85
2023/03/19 02:09:30;;;;;;;;;;;;;;;21.85;16.26;98294.16;5064580;28;20380;-85
2023/03/19 02:11:56;;;;;;;;;;;;;;;21.92;16.38;98298.88;5050585;28;20558;-85
2023/03/19 02:14:23;;;;;;;;;;;;;;;22.15;16.86;98284.28;5051858;28;20376;-86
2023/03/19 02:16:49;;;;;;;;;;;;;;;22.40;16.53;98290.38;5052984;28;19925;-85
2023/03/19 02:19:24;;;;;;;;;;;;;;;22.31;16.84;98282.47;5046430;28;19923;-86
2023/03/19 02:21:50;;;;;;;;;;;;;;;22.31;16.68;98284.50;5042729;28;19936;-86
2023/03/19 02:24:21;;;;;;;;;;;;;;;22.17;16.26;98288.22;5056953;28;20457;-85
2023/03/19 02:26:49;;;;;;;;;;;;;;;22.14;16.83;98289.06;5051336;28;20415;-85
2023/03/19 02:29:15;;;;;;;;;;;;;;;21.74;16.85;98287.84;5047768;28;20341;-85
2023/03/19 02:31:41;;;;;;;;;;;;;;;21.52;16.80;98294.81;5047213;28;19916;-85
2023/03/19 02:34:20;;;;;;;;;;;;;;;21.84;16.64;98292.53;5050108;28;19925;-85
2023/03/19 02:36:47;;;;;;;;;;;;;;;21.91;16.50;98292.47;5047217;28;19968;-85
2023/03/19 02:39:25;;;;;;;;;;;;;;;21.73;16.64;98296.63;5047248;28;20372;-85
2023/03/19 02:41:52;;;;;;;;;;;;;;;21.69;16.80;98301.44;5049756;28;19929;-85
2023/03/19 02:44:18;;;;;;;;;;;;;;;21.91;17.06;98305.69;5049445;28;19928;-85
2023/03/19 02:46:45;;;;;;;;;;;;;;;22.19;16.67;98302.59;5047782;28;20407;-85
2023/03/19 02:49:11;;;;;;;;;;;;;;;22.31;16.68;98306.88;5042646;28;19928;-85
2023/03/19 02:51:37;;;;;;;;;;;;;;;22.02;16.68;98301.56;5048580;28;19936;-85
2023/03/19 02:54:03;;;;;;;;;;;;;;;21.91;17.21;98300.88;5048310;28;19921;-85
2023/03/19 02:56:30;;;;;;;;;;;;;;;22.08;17.27;98301.91;5052066;28;20400;-85
2023/03/19 02:58:56;;;;;;;;;;;;;;;21.92;17.27;98302.47;5065234;28;20490;-85
2023/03/19 03:01:22;;;;;;;;;;;;;;;21.84;17.13;98298.13;5050386;28;20023;-85
2023/03/19 03:03:48;;;;;;;;;;;;;;;21.17;17.64;98300.66;5050167;28;20040;-85
2023/03/19 03:06:14;;;;;;;;;;;;;;;21.31;17.62;98303.34;5047958;28;19966;-85
2023/03/19 03:08:40;;;;;;;;;;;;;;;21.64;17.50;98296.31;5054991;28;20339;-85
2023/03/19 03:11:06;;;;;;;;;;;;;;;22.03;17.00;98302.38;5054689;28;19920;-86
2023/03/19 03:13:32;;;;;;;;;;;;;;;21.99;17.11;98296.00;5054802;28;19920;-86
2023/03/19 03:15:58;;;;;;;;;;;;;;;21.75;17.06;98297.78;5055065;28;19929;-86
2023/03/19 03:18:25;;;;;;;;;;;;;;;21.74;17.72;98296.22;5055704;28;20444;-86
2023/03/19 03:20:52;;;;;;;;;;;;;;;21.80;17.64;98305.72;5053447;28;19928;-86
2023/03/19 03:23:19;;;;;;;;;;;;;;;21.69;17.76;98307.03;5055100;28;19917;-86
2023/03/19 03:25:48;;;;;;;;;;;;;;;21.35;17.84;98307.69;5051028;28;19921;-86
2023/03/19 03:28:14;;;;;;;;;;;;;;;21.23;18.30;98305.41;5052007;28;20396;-86
2023/03/19 03:30:40;;;;;;;;;;;;;;;19.96;19.54;98303.13;5054380;28;19916;-86
2023/03/19 03:33:06;;;;;;;;;;;;;;;19.40;20.28;98310.69;5054645;28;19927;-86
2023/03/19 03:35:32;;;;;;;;;;;;;;;19.89;19.73;98313.47;5054388;28;20296;-86
2023/03/19 03:37:58;;;;;;;;;;;;;;;21.54;18.53;98313.97;5050120;28;19921;-86
2023/03/19 03:40:24;;;;;;;;;;;;;;;22.30;17.98;98314.47;5050793;28;20419;-86
2023/03/19 03:42:51;;;;;;;;;;;;;;;22.77;17.06;98329.53;5050531;28;19921;-86
2023/03/19 03:45:17;;;;;;;;;;;;;;;22.76;16.98;98336.31;5049634;28;19927;-86
2023/03/19 03:47:43;;;;;;;;;;;;;;;22.65;17.29;98336.47;5049822;28;20012;-86
2023/03/19 03:50:12;;;;;;;;;;;;;;;22.52;17.35;98329.78;5050922;28;20004;-86
2023/03/19 03:52:39;;;;;;;;;;;;;;;21.91;17.22;98333.63;5054717;28;20273;-86
2023/03/19 03:55:06;;;;;;;;;;;;;;;21.52;17.68;98330.34;5057561;28;19921;-86
2023/03/19 03:57:32;;;;;;;;;;;;;;;20.91;17.84;98318.72;5046677;28;20016;-86
2023/03/19 03:59:58;;;;;;;;;;;;;;;20.78;18.52;98330.75;5050115;28;20015;-86
2023/03/19 04:02:24;;;;;;;;;;;;;;;20.54;18.44;98321.28;5049532;28;20471;-85
2023/03/19 04:04:51;;;;;;;;;;;;;;;21.10;18.07;98325.81;5050023;28;20012;-85
2023/03/19 04:07:17;;;;;;;;;;;;;;;21.34;17.82;98313.72;5054275;28;19921;-86
2023/03/19 04:09:43;;;;;;;;;;;;;;;21.46;17.65;98326.38;5071122;28;20365;-85
2023/03/19 04:12:10;;;;;;;;;;;;;;;21.66;17.51;98327.41;5071557;28;20316;-86
2023/03/19 04:14:36;;;;;;;;;;;;;;;21.81;17.41;98328.91;5052438;28;19970;-86
2023/03/19 04:17:02;;;;;;;;;;;;;;;21.75;17.46;98330.56;5053199;28;19920;-85
2023/03/19 04:19:28;;;;;;;;;;;;;;;21.68;17.22;98331.38;5050145;28;20009;-85
2023/03/19 04:21:54;;;;;;;;;;;;;;;21.61;17.23;98328.66;5045598;28;19928;-85
2023/03/19 04:24:20;;;;;;;;;;;;;;;21.80;17.21;98333.69;5043932;28;19917;-85
2023/03/19 04:26:48;;;;;;;;;;;;;;;21.64;17.44;98333.44;5053371;28;19925;-84
2023/03/19 04:29:14;;;;;;;;;;;;;;;20.62;18.05;98323.66;5053543;28;20384;-85
2023/03/19 04:31:40;;;;;;;;;;;;;;;20.02;18.64;98329.38;5048051;28;19967;-84
2023/03/19 04:34:06;;;;;;;;;;;;;;;20.39;18.71;98333.72;5052252;28;19928;-85
2023/03/19 04:36:32;;;;;;;;;;;;;;;20.78;18.01;98325.19;5049868;28;19921;-85
2023/03/19 04:38:59;;;;;;;;;;;;;;;21.10;17.83;98323.84;5047732;28;19925;-85
2023/03/19 04:41:25;;;;;;;;;;;;;;;21.35;17.57;98320.91;5054066;28;19966;-85
2023/03/19 04:43:51;;;;;;;;;;;;;;;21.16;17.47;98313.03;5053800;28;19928;-85
2023/03/19 04:46:17;;;;;;;;;;;;;;;21.18;17.64;98317.00;5054847;28;20400;-85
2023/03/19 04:48:44;;;;;;;;;;;;;;;21.03;18.05;98312.69;5049299;28;20400;-85
2023/03/19 04:51:10;;;;;;;;;;;;;;;20.98;17.84;98324.25;5049323;28;19921;-85
2023/03/19 04:53:36;;;;;;;;;;;;;;;21.25;17.74;98325.34;5055355;28;20373;-85
2023/03/19 04:56:03;;;;;;;;;;;;;;;21.17;17.45;98321.00;5051974;28;19920;-85
2023/03/19 04:58:29;;;;;;;;;;;;;;;20.96;17.92;98312.72;5053137;28;20076;-85
2023/03/19 05:00:55;;;;;;;;;;;;;;;20.56;18.52;98316.91;5051306;28;19921;-86
2023/03/19 05:03:21;;;;;;;;;;;;;;;20.13;18.78;98320.19;5051227;28;19940;-86
2023/03/19 05:05:47;;;;;;;;;;;;;;;19.86;19.36;98312.28;5045454;28;19929;-86
2023/03/19 05:08:13;;;;;;;;;;;;;;;20.50;19.15;98307.38;5053256;28;20381;-86
2023/03/19 05:10:39;;;;;;;;;;;;;;;21.10;18.30;98312.66;5053542;28;19994;-86
2023/03/19 05:13:05;;;;;;;;;;;;;;;21.33;18.27;98309.34;5055073;28;20027;-86
2023/03/19 05:15:32;;;;;;;;;;;;;;;21.41;18.61;98316.44;5052740;28;19921;-86
2023/03/19 05:17:58;;;;;;;;;;;;;;;21.41;18.64;98318.44;5052368;28;19921;-86
2023/03/19 05:20:24;;;;;;;;;;;;;;;21.57;18.62;98316.72;5051986;28;20023;-86
2023/03/19 05:22:53;;;;;;;;;;;;;;;21.70;18.49;98317.03;5049866;28;19946;-86
2023/03/19 05:25:19;;;;;;;;;;;;;;;21.55;18.80;98321.13;5053393;28;20400;-87
2023/03/19 05:27:45;;;;;;;;;;;;;;;21.95;18.59;98318.41;5051276;28;19928;-87
2023/03/19 05:30:11;;;;;;;;;;;;;;;21.83;18.75;98309.72;5049192;28;19928;-87
2023/03/19 05:32:39;;;;;;;;;;;;;;;20.72;20.06;98307.28;5047469;28;19920;-87
2023/03/19 05:35:05;;;;;;;;;;;;;;;20.82;19.89;98312.78;5048787;28;19932;-87
2023/03/19 05:37:32;;;;;;;;;;;;;;;20.85;20.08;98309.19;5047998;28;19927;-88
2023/03/19 05:39:58;;;;;;;;;;;;;;;22.14;19.47;98317.03;5053326;28;20400;-88
2023/03/19 05:42:24;;;;;;;;;;;;;;;21.89;19.28;98313.69;5052221;28;19921;-88
2023/03/19 05:44:50;;;;;;;;;;;;;;;22.12;19.20;98313.88;5051487;28;19955;-89
2023/03/19 05:47:16;;;;;;;;;;;;;;;21.90;19.80;98309.69;5051815;28;20373;-88
2023/03/19 05:49:42;;;;;;;;;;;;;;;21.13;20.36;98313.84;5051146;28;20019;-88
2023/03/19 05:52:08;;;;;;;;;;;;;;;21.25;20.46;98311.38;5050790;28;19928;-87
2023/03/19 05:54:34;;;;;;;;;;;;;;;21.68;20.24;98311.81;5052459;28;19921;-88
2023/03/19 05:57:01;;;;;;;;;;;;;;;20.76;21.30;98306.06;5051004;28;20392;-87
2023/03/19 05:59:27;;;;;;;;;;;;;;;20.82;21.40;98304.41;5050029;28;19927;-89
2023/03/19 06:01:53;;;;;;;;;;;;;;;20.76;21.51;98306.06;5052291;28;19921;-89
2023/03/19 06:04:19;;;;;;;;;;;;;;;20.50;21.96;98312.16;5050097;28;20449;-87
2023/03/19 06:06:46;;;;;;;;;;;;;;;21.34;21.54;98316.50;5050909;28;20018;-87
2023/03/19 06:09:12;;;;;;;;;;;;;;;22.80;19.79;98308.31;5049982;28;19944;-87
2023/03/19 06:11:39;;;;;;;;;;;;;;;22.07;20.78;98310.72;5045770;28;19921;-87
2023/03/19 06:14:05;;;;;;;;;;;;;;;21.91;20.54;98314.84;5050526;28;19925;-87
2023/03/19 06:16:31;;;;;;;;;;;;;;;23.15;19.74;98305.00;5048674;28;19994;-87
2023/03/19 06:18:57;;;;;;;;;;;;;;;22.84;19.83;98312.63;5044647;28;19925;-87
2023/03/19 06:21:28;;;;;;;;;;;;;;;23.42;19.42;98313.44;5044612;28;19921;-87
2023/03/19 06:23:55;;;;;;;;;;;;;;;23.57;20.12;98312.75;5042646;28;20242;-86
2023/03/19 06:26:21;;;;;;;;;;;;;;;23.85;20.02;98315.09;5043326;28;19921;-87
2023/03/19 06:28:47;;;;;;;;;;;;;;;24.36;19.30;98318.63;5036723;28;19952;-87
2023/03/19 06:31:13;;;;;;;;;;;;;;;24.54;19.02;98317.06;5045408;28;19929;-87
2023/03/19 06:33:39;;;;;;;;;;;;;;;24.66;19.55;98324.84;5041889;28;19925;-87
2023/03/19 06:36:06;;;;;;;;;;;;;;;24.36;19.47;98325.03;5043283;28;19928;-87
2023/03/19 06:38:32;;;;;;;;;;;;;;;24.51;20.03;98329.13;5048677;28;20012;-87
2023/03/19 06:41:01;;;;;;;;;;;;;;;24.46;19.88;98321.22;5040738;28;20419;-86
2023/03/19 06:43:28;;;;;;;;;;;;;;;24.61;19.35;98324.53;5045175;28;19924;-87
2023/03/19 06:45:54;;;;;;;;;;;;;;;24.54;19.96;98330.28;5043981;28;20381;-87
2023/03/19 06:48:20;;;;;;;;;;;;;;;24.93;20.22;98326.69;5041913;28;20002;-87
2023/03/19 06:50:46;;;;;;;;;;;;;;;24.88;19.18;98336.44;5050801;28;19959;-87
2023/03/19 06:53:13;;;;;;;;;;;;;;;25.04;18.51;98330.84;5046183;28;19925;-87
2023/03/19 06:55:39;;;;;;;;;;;;;;;25.26;18.47;98334.78;5049409;28;19924;-87
2023/03/19 06:58:05;;;;;;;;;;;;;;;24.57;19.11;98332.25;5039248;28;19924;-89
2023/03/19 07:00:32;;;;;;;;;;;;;;;23.01;21.32;98338.81;5041809;28;19958;-87
2023/03/19 07:02:58;;;;;;;;;;;;;;;24.44;19.97;98331.28;5046146;28;20380;-86
2023/03/19 07:05:25;;;;;;;;;;;;;;;25.49;19.13;98331.06;5043457;28;19947;-86
2023/03/19 07:07:50;;;;;;;;;;;;;;;25.60;19.57;98333.66;5046948;28;19947;-85
2023/03/19 07:10:17;;;;;;;;;;;;;;;24.26;21.14;98328.03;5045464;28;20339;-87
2023/03/19 07:12:44;;;;;;;;;;;;;;;23.70;21.16;98324.97;5041417;28;19959;-87
2023/03/19 07:15:10;;;;;;;;;;;;;;;24.04;20.48;98331.19;5046529;28;19921;-86
2023/03/19 07:17:36;;;;;;;;;;;;;;;23.43;21.03;98324.22;5065303;28;20015;-87
2023/03/19 07:20:02;;;;;;;;;;;;;;;23.56;20.66;98327.22;5046771;28;20004;-84
2023/03/19 07:22:28;;;;;;;;;;;;;;;24.48;20.17;98330.00;5044026;28;20342;-87
2023/03/19 07:24:54;;;;;;;;;;;;;;;25.23;19.78;98329.22;5039741;28;19924;-87
2023/03/19 07:27:20;;;;;;;;;;;;;;;25.60;19.17;98325.97;5042302;28;19928;-86
2023/03/19 07:29:46;;;;;;;;;;;;;;;26.93;18.40;98332.13;5048156;28;20368;-87
2023/03/19 07:32:13;;;;;;;;;;;;;;;27.33;17.58;98324.03;5038615;28;19949;-87
2023/03/19 07:34:39;;;;;;;;;;;;;;;27.68;16.99;98319.34;5046862;28;19943;-86
2023/03/19 07:37:05;;;;;;;;;;;;;;;27.88;17.00;98312.19;5039518;28;19921;-86
2023/03/19 07:39:31;;;;;;;;;;;;;;;27.45;17.39;98320.47;5038383;28;19921;-87
2023/03/19 07:41:57;;;;;;;;;;;;;;;27.15;17.84;98324.59;5041647;28;19921;-87
2023/03/19 07:44:23;;;;;;;;;;;;;;;27.23;18.04;98334.44;5042622;28;20338;-88
2023/03/19 07:46:49;;;;;;;;;;;;;;;26.44;18.01;98325.81;5047106;28;19925;-87
2023/03/19 07:49:16;;;;;;;;;;;;;;;26.43;17.40;98334.72;5048957;28;19921;-86
2023/03/19 07:51:42;;;;;;;;;;;;;;;27.25;17.35;98323.50;5040521;28;19927;-85
2023/03/19 07:54:08;;;;;;;;;;;;;;;27.54;16.97;98316.97;5058291;28;20373;-86
2023/03/19 07:56:34;;;;;;;;;;;;;;;27.76;17.34;98315.03;5051152;28;20008;-86
2023/03/19 07:59:00;;;;;;;;;;;;;;;27.94;16.75;98310.38;5052099;28;19925;-86
2023/03/19 08:01:26;;;;;;;;;;;;;;;27.84;16.87;98311.50;5048255;28;19920;-85
2023/03/19 08:03:52;;;;;;;;;;;;;;;28.60;16.17;98300.81;5054161;28;19912;-85
2023/03/19 08:06:18;;;;;;;;;;;;;;;28.69;15.89;98308.56;5056094;28;19927;-86
2023/03/19 08:08:44;;;;;;;;;;;;;;;29.05;16.75;98306.00;5039240;28;19917;-87
2023/03/19 08:11:10;;;;;;;;;;;;;;;27.58;16.81;98312.81;5044810;28;19925;-85
2023/03/19 08:13:36;;;;;;;;;;;;;;;28.41;16.61;98298.28;5049861;28;19917;-84
2023/03/19 08:16:02;;;;;;;;;;;;;;;29.20;16.57;98292.88;5049961;28;19936;-85
2023/03/19 08:18:28;;;;;;;;;;;;;;;29.61;15.12;98294.47;5046522;28;20457;-86
2023/03/19 08:20:54;;;;;;;;;;;;;;;24.82;21.34;98303.66;5051270;28;20016;-87
2023/03/19 08:23:20;;;;;;;;;;;;;;;27.04;17.40;98303.63;5052670;28;20011;-86
2023/03/19 08:25:47;;;;;;;;;;;;;;;28.54;16.31;98290.56;5052859;28;19921;-87
2023/03/19 08:28:13;;;;;;;;;;;;;;;28.65;17.49;98290.97;5049037;28;19929;-86
2023/03/19 08:30:39;;;;;;;;;;;;;;;29.55;16.60;98295.53;5046532;28;19948;-86
2023/03/19 08:33:05;;;;;;;;;;;;;;;30.15;16.07;98291.00;5058399;28;19967;-85
2023/03/19 08:35:31;;;;;;;;;;;;;;;29.35;16.41;98296.75;5052540;28;20329;-85
2023/03/19 08:37:57;;;;;;;;;;;;;;;28.90;16.99;98296.47;5054422;28;20019;-85
2023/03/19 08:40:23;;;;;;;;;;;;;;;28.97;17.04;98292.56;5045615;28;20015;-85
2023/03/19 08:42:49;;;;;;;;;;;;;;;29.11;16.74;98294.84;5041952;28;20391;-86
2023/03/19 08:45:18;;;;;;;;;;;;;;;30.00;15.79;98287.19;5050785;28;20196;-87
2023/03/19 08:47:44;;;;;;;;;;;;;;;30.08;16.06;98294.16;5046247;28;20003;-87
2023/03/19 08:50:10;;;;;;;;;;;;;;;30.46;14.55;98293.69;5049833;28;19990;-85
2023/03/19 08:52:36;;;;;;;;;;;;;;;30.76;16.33;98290.69;5055259;28;19921;-86
2023/03/19 08:55:03;;;;;;;;;;;;;;;31.07;14.43;98293.34;5049243;28;20284;-87
2023/03/19 08:57:30;;;;;;;;;;;;;;;30.36;15.65;98287.28;5052569;28;19925;-87
2023/03/19 08:59:56;;;;;;;;;;;;;;;28.84;15.81;98287.00;5049184;28;19978;-86
2023/03/19 09:02:22;;;;;;;;;;;;;;;28.66;16.27;98282.03;5049248;28;19972;-90
2023/03/19 09:04:48;;;;;;;;;;;;;;;29.97;16.21;98283.25;5050696;28;20418;-89
2023/03/19 09:07:15;;;;;;;;;;;;;;;30.07;16.60;98284.84;5055020;28;19920;-86
2023/03/19 09:09:41;;;;;;;;;;;;;;;30.76;15.34;98287.84;5055254;28;19928;-87
2023/03/19 09:12:09;;;;;;;;;;;;;;;30.54;14.74;98284.44;5043546;28;19986;-85
2023/03/19 09:14:35;;;;;;;;;;;;;;;29.74;17.48;98283.03;5046702;28;20361;-87
2023/03/19 09:17:02;;;;;;;;;;;;;;;30.33;15.52;98284.59;5053561;28;19960;-88
2023/03/19 09:19:28;;;;;;;;;;;;;;;29.83;14.72;98277.41;5053561;28;19943;-87
2023/03/19 09:21:54;;;;;;;;;;;;;;;29.77;16.05;98274.44;5053542;28;19921;-88
2023/03/19 09:24:20;;;;;;;;;;;;;;;28.09;17.42;98276.84;5046793;28;19943;-88
2023/03/19 09:26:48;;;;;;;;;;;;;;;28.72;17.20;98280.19;5045166;28;20408;-88
2023/03/19 09:29:15;;;;;;;;;;;;;;;26.40;19.20;98279.28;5047852;28;19936;-87
2023/03/19 09:31:41;;;;;;;;;;;;;;;27.31;17.64;98268.09;5042775;28;20438;-88
2023/03/19 09:34:07;;;;;;;;;;;;;;;29.75;16.01;98270.47;5048348;28;19924;-88
2023/03/19 09:36:34;;;;;;;;;;;;;;;30.50;16.40;98272.44;5051329;28;20313;-88
2023/03/19 09:39:01;;;;;;;;;;;;;;;29.13;16.45;98272.53;5052061;28;19925;-90
2023/03/19 09:41:30;;;;;;;;;;;;;;;29.63;16.93;98258.00;5054140;28;19944;-87
2023/03/19 09:43:59;;;;;;;;;;;;;;;30.42;15.18;98267.59;5045206;28;19927;-87
2023/03/19 09:46:31;;;;;;;;;;;;;;;31.07;15.23;98259.28;5044123;28;19921;-86
2023/03/19 09:49:05;;;;;;;;;;;;;;;30.14;14.91;98260.31;5041197;28;19928;-86
2023/03/19 09:51:49;;;;;;;;;;;;;;;27.65;16.63;98252.53;5052060;28;19921;-86
2023/03/19 09:54:26;;;;;;;;;;;;;;;27.14;15.61;98257.41;5052166;28;19927;-87
2023/03/19 09:56:53;;;;;;;;;;;;;;;27.45;17.66;98246.34;5051217;28;19921;-86
2023/03/19 09:59:21;;;;;;;;;;;;;;;28.43;17.73;98262.69;5050117;28;19920;-86
2023/03/19 10:02:07;;;;;;;;;;;;;;;29.23;15.12;98254.41;5050680;28;19921;-86
2023/03/19 10:04:42;;;;;;;;;;;;;;;27.68;19.24;98260.88;5030513;28;20012;-86
2023/03/19 10:07:14;;;;;;;;;;;;;;;27.73;16.57;98259.50;5049252;28;19936;-86
2023/03/19 10:09:47;;;;;;;;;;;;;;;26.60;18.09;98252.56;5051977;28;19925;-85
2023/03/19 10:12:13;;;;;;;;;;;;;;;28.75;15.60;98245.34;5040877;28;19927;-83
2023/03/19 10:14:39;;;;;;;;;;;;;;;28.26;16.84;98254.84;5046306;28;19925;-84
2023/03/19 10:17:09;;;;;;;;;;;;;;;26.44;17.44;98255.44;5045183;28;19932;-83
2023/03/19 10:19:41;;;;;;;;;;;;;;;29.16;15.50;98246.19;5039690;28;19921;-84
2023/03/19 10:22:11;;;;;;;;;;;;;;;30.58;13.92;98247.41;5040179;28;19924;-84
2023/03/19 10:24:39;;;;;;;;;;;;;;;29.50;16.15;98234.69;5045874;28;19948;-83
2023/03/19 10:27:19;;;;;;;;;;;;;;;27.03;20.21;98242.84;5042557;28;19929;-84
2023/03/19 10:29:46;;;;;;;;;;;;;;;26.13;19.90;98242.28;5041549;28;20453;-83
2023/03/19 10:32:19;;;;;;;;;;;;;;;26.23;17.58;98235.56;5044536;28;20004;-84
2023/03/19 10:34:47;;;;;;;;;;;;;;;27.42;19.98;98224.72;5041771;28;19935;-84
2023/03/19 10:37:15;;;;;;;;;;;;;;;29.37;15.16;98226.34;5044091;28;19956;-83
2023/03/19 10:39:43;;;;;;;;;;;;;;;30.90;13.34;98226.13;5037443;28;19958;-84
2023/03/19 10:42:19;;;;;;;;;;;;;;;31.07;13.33;98221.63;5042652;28;19936;-84
2023/03/19 10:45:03;;;;;;;;;;;;;;;30.87;14.58;98207.19;5046838;28;20023;-85
2023/03/19 10:47:34;;;;;;;;;;;;;;;31.46;14.19;98208.41;5051196;28;20277;-85
2023/03/19 10:50:01;;;;;;;;;;;;;;;31.07;12.82;98213.13;5046700;28;20043;-84
2023/03/19 10:52:29;;;;;;;;;;;;;;;31.77;13.42;98200.31;5048865;28;20576;-84
2023/03/19 10:55:01;;;;;;;;;;;;;;;32.43;13.49;98196.00;5048598;28;19925;-84
2023/03/19 10:57:28;;;;;;;;;;;;;;;31.80;14.76;98199.34;5053344;28;19924;-89
2023/03/19 10:59:54;;;;;;;;;;;;;;;31.86;13.37;98198.19;5052168;28;19924;-87
2023/03/19 11:02:29;;;;;;;;;;;;;;;29.91;14.03;98194.56;5050019;28;19927;-85
2023/03/19 11:05:28;;;;;;;;;;;;;;;31.68;13.66;98189.81;5047060;28;19929;-85
2023/03/19 11:07:55;;;;;;;;;;;;;;;32.31;12.89;98184.91;5035029;28;19928;-85
2023/03/19 11:10:23;;;;;;;;;;;;;;;31.62;16.61;98182.44;5048003;28;20040;-86
2023/03/19 11:12:54;;;;;;;;;;;;;;;32.20;13.63;98182.66;5044634;28;20383;-88
2023/03/19 11:15:22;;;;;;;;;;;;;;;33.07;13.98;98187.56;5045278;28;19928;-84
2023/03/19 11:17:54;;;;;;;;;;;;;;;33.04;13.91;98191.44;5049526;28;19946;-84
2023/03/19 11:20:22;;;;;;;;;;;;;;;33.06;14.12;98185.25;5044497;28;19928;-84
2023/03/19 11:22:49;;;;;;;;;;;;;;;32.89;14.20;98184.94;5049121;28;19927;-84
2023/03/19 11:25:24;;;;;;;;;;;;;;;32.07;14.68;98179.28;5048061;28;19917;-84
2023/03/19 11:27:57;;;;;;;;;;;;;;;32.75;13.62;98180.84;5046461;28;20003;-84
2023/03/19 11:30:24;;;;;;;;;;;;;;;33.13;13.29;98171.41;5049056;28;19917;-84
2023/03/19 11:32:56;;;;;;;;;;;;;;;33.87;13.88;98169.06;5052692;28;19925;-84
2023/03/19 11:35:27;;;;;;;;;;;;;;;33.78;13.61;98167.16;5056970;28;19925;-84
2023/03/19 11:37:55;;;;;;;;;;;;;;;29.50;21.01;98172.44;5057182;28;20400;-85
2023/03/19 11:40:33;;;;;;;;;;;;;;;28.83;20.64;98171.56;5051000;28;20379;-84
2023/03/19 11:42:59;;;;;;;;;;;;;;;30.23;15.97;98159.13;5052444;28;19990;-84
2023/03/19 11:45:39;;;;;;;;;;;;;;;29.73;17.13;98168.25;5049614;28;19921;-86
2023/03/19 11:48:20;;;;;;;;;;;;;;;28.54;20.57;98164.19;5048606;28;19928;-85
2023/03/19 11:50:46;;;;;;;;;;;;;;;28.75;18.91;98154.13;5052913;28;19924;-85
2023/03/19 11:53:18;;;;;;;;;;;;;;;29.55;16.85;98146.34;5052827;28;19936;-86
2023/03/19 11:55:52;;;;;;;;;;;;;;;27.44;21.22;98138.41;5050400;28;19920;-87
2023/03/19 11:58:37;;;;;;;;;;;;;;;25.67;22.62;98147.88;5047185;28;20308;-89
2023/03/19 12:01:22;;;;;;;;;;;;;;;26.48;21.91;98151.94;5042330;28;19925;-87
2023/03/19 12:04:04;;;;;;;;;;;;;;;26.93;21.93;98148.97;5043060;28;19928;-87
2023/03/19 12:06:45;;;;;;;;;;;;;;;24.84;21.97;98147.53;5058883;28;20456;-87
2023/03/19 12:09:14;;;;;;;;;;;;;;;27.24;15.82;98138.63;5043544;28;19952;-88
2023/03/19 12:11:49;;;;;;;;;;;;;;;25.92;20.54;98145.94;5039289;28;20365;-89
2023/03/19 12:14:18;;;;;;;;;;;;;;;24.28;21.99;98140.38;5045548;28;19928;-88
2023/03/19 12:17:07;;;;;;;;;;;;;;;24.09;22.26;98133.56;5051005;28;19975;-87
2023/03/19 12:19:44;;;;;;;;;;;;;;;24.67;22.06;98132.66;5045182;28;20454;-90
2023/03/19 12:22:10;;;;;;;;;;;;;;;24.18;21.68;98136.59;5052237;28;19932;-88
2023/03/19 12:24:56;;;;;;;;;;;;;;;24.10;22.04;98129.56;5053334;28;20300;-90
2023/03/19 12:27:35;;;;;;;;;;;;;;;24.70;22.55;98131.00;5054679;28;19928;-90
2023/03/19 12:30:10;;;;;;;;;;;;;;;24.41;19.26;98130.09;5054155;28;19925;-89
2023/03/19 12:32:55;;;;;;;;;;;;;;;24.69;20.52;98113.34;5062932;28;20021;-90
2023/03/19 12:35:34;;;;;;;;;;;;;;;24.34;21.44;98116.97;5044652;28;19925;-90
2023/03/19 12:38:04;;;;;;;;;;;;;;;25.86;21.38;98108.31;5055195;28;20011;-90
2023/03/19 12:40:40;;;;;;;;;;;;;;;24.94;21.17;98103.56;5054240;28;20022;-90
2023/03/19 12:43:27;;;;;;;;;;;;;;;24.37;21.76;98104.09;5054213;28;19929;-91
2023/03/19 12:46:05;;;;;;;;;;;;;;;25.10;20.62;98100.75;5052891;28;20989;-90
2023/03/19 12:48:40;;;;;;;;;;;;;;;27.06;19.46;98095.38;5057426;28;19946;-89
2023/03/19 12:51:08;;;;;;;;;;;;;;;26.68;19.67;98096.19;5050309;28;19923;-90
2023/03/19 12:53:55;;;;;;;;;;;;;;;26.78;20.92;98091.47;5048633;28;19925;-90